Bituma I — CNA4977 — position and weather

sailwx.info

Track history (hours):
 
Tides and Currents Weather Stations Pressure Air Temp Water Temp Dewpoint Dewpoint Depression Visibility Wind Speed Wind Dir Waves Ship Positions

Bituma I

Last reported at 2017-Nov-08 18:30 UTC. Time now 2017-Nov-23 09:46 UTC.
Position N 33°44' W 007°22'.
Warning: this ship's position is 14 days out of date.

Length 103 m; draft 5.6 m.

Type: Ship. MMSI: 242187100.

Date/timePositionNaut miles runAvg speedWind from/ knotsBaromVisibWave heightAir tempDewpointWater temp
2017-Nov-08 18:30N 33°44' W 007°22'  
2017-Nov-03 17:48N 36°40' E 000°17'311.0
2017-Nov-03 17:30N 36°41' E 000°21'510.9
2017-Nov-03 17:00N 36°42' E 000°28'810.6
2017-Nov-03 16:14N 36°44' E 000°38'  
2017-Nov-01 00:36N 36°42' E 013°46'2 9.9
2017-Nov-01 00:26N 36°41' E 013°48'4 9.5
2017-Nov-01 00:00N 36°38' E 013°52'5 9.0
2017-Oct-31 23:28N 36°35' E 013°56'510.0
2017-Oct-31 22:59N 36°33' E 014°01'510.0
2017-Oct-31 22:30N 36°31' E 014°07'510.0
2017-Oct-31 21:59N 36°30' E 014°13'5 9.9
2017-Oct-31 21:29N 36°28' E 014°19'510.0
2017-Oct-31 21:00N 36°27' E 014°25'510.1
2017-Oct-31 20:30N 36°26' E 014°31'510.3
2017-Oct-31 20:00N 36°25' E 014°37'  
Track history (hours):
 
Tides and Currents Weather Stations Pressure Air Temp Water Temp Dewpoint Dewpoint Depression Visibility Wind Speed Wind Dir Waves Ship Positions

Bituma I

Last reported at 2017-Nov-08 18:30 UTC. Time now 2017-Nov-23 09:46 UTC.
Position N 33°44' W 007°22'.
Warning: this ship's position is 14 days out of date.

Length 103 m; draft 5.6 m.

Type: Ship. MMSI: 242187100.

Date/timePositionNaut miles runAvg speedWind from/ knotsBaromVisibWave heightAir tempDewpointWater temp
2017-Nov-08 18:30N 33°44' W 007°22'  
2017-Nov-03 17:48N 36°40' E 000°17'311.0
2017-Nov-03 17:30N 36°41' E 000°21'510.9
2017-Nov-03 17:00N 36°42' E 000°28'810.6
2017-Nov-03 16:14N 36°44' E 000°38'  
2017-Nov-01 00:36N 36°42' E 013°46'2 9.9
2017-Nov-01 00:26N 36°41' E 013°48'4 9.5
2017-Nov-01 00:00N 36°38' E 013°52'5 9.0
2017-Oct-31 23:28N 36°35' E 013°56'510.0
2017-Oct-31 22:59N 36°33' E 014°01'510.0
2017-Oct-31 22:30N 36°31' E 014°07'510.0
2017-Oct-31 21:59N 36°30' E 014°13'5 9.9
2017-Oct-31 21:29N 36°28' E 014°19'510.0
2017-Oct-31 21:00N 36°27' E 014°25'510.1
2017-Oct-31 20:30N 36°26' E 014°31'510.3
2017-Oct-31 20:00N 36°25' E 014°37'  

Dump ship's entire track history